Boston, Massachusetts
Traffic Map
Current Weather Conditions
Boston, Massachusetts
Overcast
Overcast
70°
Feels Like: 70°
Wind Chill: 70° Ceiling: 2800
Heat Index: 70° Visibility: 10mi
Dew Point: 64° Wind: 15mph
Humidity: 81% Direction: 210° (SSW)
Pressure: 30.08in Gusts: 0mph
Raw Report DataKBOS 310954Z 21013KT 10SM FEW018 OVC028 21/18 A3008 RMK AO2 SLP185 T02110178 $
Traffic Incident Summary
Active as of:
Severity:
Category:
InformationThere was an issue retrieving the traffic information for this location. Please try a different location or try again shortly.
Advertisements
Track Severe Weather on mobile